WCOM7: Spring River, Waco, MO

                                SHEF ID:       WCOM7     Spring R A - Waco MO
STATION TYPE: Stream Gauge
Regulating: Stage = 19.00, Flow = 17743

PRECIP STAGE RIV-FLOW BAT-LOAD
in ft cfs volt
Ccp-Rev Ccp-Rev Ccp-Rev Ccp-Rev
(America/Chicago)
05/01 00:00 0.00 4.42 1895 12.17
05/01 01:00 0.00 4.39 1872 12.11
05/01 02:00 0.00 4.32 1820 12.15
05/01 03:00 0.00 4.21 1739 12.11
05/01 04:00 0.00 4.24 1761 12.05
05/01 05:00 0.00 4.21 1739 12.01
05/01 06:00 0.00 4.16 1703 12.00
05/01 07:00 0.00 4.13 1681 12.01
05/01 08:00 0.00 4.09 1653 12.11
05/01 09:00 0.00 4.03 1610 12.27
05/01 10:00 0.00 4.04 1617 12.52
05/01 11:00 0.00 3.96 1560 13.16
05/01 12:00 0.00 3.95 1553 13.01
05/01 13:00 0.00 3.93 1538 13.02
05/01 14:00 0.00 3.89 1510 13.11
05/01 15:00 0.00 3.87 1495 12.84
05/01 16:00 0.00 3.86 1488 12.61
05/01 17:00 0.00 3.80 1446 12.57
05/01 18:00 0.00 3.81 1453 12.57
05/01 19:00 0.00 3.76 1418 12.47
05/01 20:00 0.00 3.68 1363 12.36
05/01 21:00 0.00 3.76 1418 12.21
05/01 22:00 0.00 3.72 1390 12.16
05/01 23:00 0.00 3.68 1363 12.14
Data processed at Sat 02May2026 04:37 GMT

NOTICE: If you are parsing this page

Please convert to using our Data API. Starting early 2026 we will be migrating to: https://water.usace.army.mil with modern pages rendered in JavaScript. When this migration completes you will no longer be able to scrape this page! CWMSDataAPI (CDA)

Timeseries IDs (TSIDs)

TSIDs used from left to right in the data table
WACO.Precip-Inc.Total.1Hour.1Hour.Ccp-Rev
WACO.Stage.Inst.1Hour.0.Ccp-Rev
WACO.Flow.Inst.1Hour.0.Ccp-Rev
WACO.Volt-Battery Load.Inst.1Hour.0.Ccp-Rev

                            

All information presented herein is the property of the government of the United States of America and may be revised or deleted at any time without prior notice. Dissemination of this information without the expressed written consent of the Public Affairs Office, Tulsa District U.S. Army Corps of Engineers is strictly prohibited. These data are gathered electronically and, as presented, have NOT undergone any form of quality control. These data are NOT guaranteed to be valid or correct.